Detall de PIREP

Printer-friendly versionPDF version

[2013/03/19 12:10:00]
Flight IATA:CT3409
Pilot Number:011
Company ICAO:CAT
Aircraft Type:B738/F
PAX:160
Departing Airport: LSGG
Destination Airport: LEBL
Alternate Airport:LEPA
Online: VATSIM
Route:BALSI UN852 DIVKO UN975 NILDU BISBA
Flight Level:F270
No Slew and time accel
No pause
Crash detect
Detect pilot in Cockpit between each 30 and 45 minutes
12:10 Zero fuel Weight: 137990 Lbs, Fuel Weight: 10939 Lbs
12:10 VATSIM:LSGG 191150Z 20012KT 160V240 9999 SCT045 SCT270 09/M01 Q1005 NOSIG
12:10 VATSIM:LEBL 191200Z 07014KT 9999 FEW025 15/08 Q1006 NOSIG
12:15 Parking Brakes off
12:25 Take-off
12:25 Take off Weight: 147946 Lbs
12:25 Wind: 201º @ 012 Knots Heading: 222º
12:25 POS N46º 14´ 29´´ E006º 06´ 51´´
12:25 Flaps:5 at 164 Knots
12:25 Gear Up: 165 Knots
12:26 Flaps:4 at 235 Knots
12:26 Flaps:3 at 239 Knots
12:26 Flaps:2 at 250 Knots
12:26 Flaps:1 at 251 Knots
12:26 Flaps:0 at 251 Knots
12:37 TOC
12:37 Fuel Weight: 7293 Lb
12:40 Wind:210º@025 Knots Heading: 192º Ground Speed: 435 Knots Altitude 26738 ft
12:55 Wind:284º@012 Knots Heading: 214º Ground Speed: 456 Knots Altitude 26797 ft
13:02 TOD
13:02 Fuel Weight: 4449 Lb
13:10 Wind:138º@027 Knots Heading: 240º Ground Speed: 374 Knots Altitude 15216 ft
13:20 Flaps:1 at 246 Knots
13:20 Flaps:2 at 236 Knots
13:22 Flaps:3 at 223 Knots
13:22 Flaps:4 at 223 Knots
13:23 Flaps:5 at 205 Knots
13:24 Flaps:6 at 189 Knots
13:24 Gear Down: 187 Knots
13:25 Wind:089º@015 Knots Heading: 109º Ground Speed: 160 Knots Altitude 2893 ft
13:26 Flaps:7 at 160 Knots
13:27 Flaps:8 at 144 Knots
13:33 TouchDown:Rate -154 ft/min Speed: 121 Knots
13:34 VATSIM:LEBL 191300Z 08011KT 9999 FEW025 15/07 Q1005 NOSIG
13:34 Land
13:34 Wind:084º@011 Knots
13:34 Heading: 067º
13:34 Flight Duration: 01:09
13:34 Landing Weight: 139349 Lbs
13:34 POS N41º 17´ 26´´ E002º 05´ 57´´
13:34 Parking brakes on
13:34 Block to Block Duration: 01:19
13:34 Final Fuel: 1276 Lbls
13:34 Spent Fuel: 9662 Lbls
13:34 Flight Length: 401 NM
13:34 TOD Land Length: 147 NM

Exportar CSV

Powered by Drupal - Modified by Danger4k